createdAt,value
2022-08-17T00:05:26.870Z,20.62
2022-08-17T00:15:29.703Z,20.51
2022-08-17T00:25:34.257Z,20.39
2022-08-17T00:35:36.971Z,20.32
2022-08-17T00:45:41.008Z,20.22
2022-08-17T00:55:46.307Z,20.12
2022-08-17T01:05:53.875Z,20.00
2022-08-17T01:16:00.127Z,19.92
2022-08-17T01:26:06.263Z,19.95
2022-08-17T01:36:09.719Z,19.86
2022-08-17T01:46:18.013Z,19.40
2022-08-17T01:56:24.033Z,19.54
2022-08-17T02:06:29.433Z,19.45
2022-08-17T02:16:36.806Z,19.26
2022-08-17T02:26:41.685Z,19.21
2022-08-17T02:36:44.460Z,19.24
2022-08-17T02:46:48.586Z,19.32
2022-08-17T02:56:51.344Z,19.12
2022-08-17T03:06:55.500Z,19.00
2022-08-17T03:16:59.814Z,18.77
2022-08-17T03:27:03.922Z,18.77
2022-08-17T03:37:06.771Z,18.69
2022-08-17T03:47:27.713Z,18.76
2022-08-17T03:57:31.392Z,18.70
2022-08-17T04:07:35.413Z,18.78
2022-08-17T04:17:38.076Z,18.84
2022-08-17T04:27:42.157Z,18.93
2022-08-17T04:37:46.251Z,18.98
2022-08-17T04:47:50.263Z,19.17
2022-08-17T04:57:52.996Z,19.29
2022-08-17T05:07:59.605Z,19.42
2022-08-17T05:18:02.473Z,19.44
2022-08-17T05:28:07.386Z,19.66
2022-08-17T05:38:10.286Z,19.95
2022-08-17T05:48:14.684Z,20.20
2022-08-17T05:58:26.233Z,20.49
2022-08-17T06:08:37.727Z,21.02
2022-08-17T06:18:45.781Z,20.79
2022-08-17T06:28:54.013Z,20.62
2022-08-17T06:39:10.354Z,20.10
2022-08-17T06:49:21.804Z,20.12
2022-08-17T06:59:54.176Z,20.35
2022-08-17T07:10:01.773Z,20.35
2022-08-17T07:20:08.498Z,20.48
2022-08-17T07:30:19.275Z,20.64
2022-08-17T07:40:28.891Z,21.00
2022-08-17T07:50:33.741Z,21.22
2022-08-17T08:00:37.166Z,21.49
2022-08-17T08:10:45.386Z,22.14
2022-08-17T08:20:53.858Z,22.73
2022-08-17T08:31:05.059Z,22.88
2022-08-17T08:41:22.837Z,23.20
2022-08-17T08:51:39.699Z,23.41
2022-08-17T09:01:52.995Z,23.89
2022-08-17T09:12:06.287Z,24.41
2022-08-17T09:22:17.501Z,24.61
2022-08-17T09:32:25.904Z,25.10
2022-08-17T09:42:34.156Z,25.22
2022-08-17T09:52:38.402Z,25.60
2022-08-17T10:03:06.094Z,25.57
2022-08-17T10:13:16.256Z,25.60
2022-08-17T10:23:46.424Z,25.42
2022-08-17T10:34:03.290Z,25.68
2022-08-17T10:44:39.578Z,25.97
2022-08-17T10:54:48.185Z,25.90
2022-08-17T11:05:01.972Z,26.02
2022-08-17T11:15:19.553Z,25.77
2022-08-17T11:25:34.425Z,26.03
2022-08-17T11:35:48.364Z,26.32
2022-08-17T11:46:03.178Z,26.91
2022-08-17T11:56:09.821Z,27.47
2022-08-17T12:06:22.084Z,27.78
2022-08-17T12:16:34.189Z,28.28
2022-08-17T12:26:37.666Z,29.80
2022-08-17T12:36:42.310Z,28.42
2022-08-17T12:46:57.319Z,27.76
2022-08-17T12:57:07.309Z,27.38
2022-08-17T13:07:10.040Z,27.30
2022-08-17T13:17:14.242Z,27.23
2022-08-17T13:27:22.160Z,27.46
2022-08-17T13:37:30.113Z,27.71
2022-08-17T13:47:34.395Z,27.60
2022-08-17T13:57:38.500Z,27.43
2022-08-17T14:07:41.264Z,27.22
2022-08-17T14:17:45.376Z,26.90
2022-08-17T14:27:53.433Z,26.67
2022-08-17T14:37:58.228Z,26.50
2022-08-17T14:48:02.742Z,26.30
2022-08-17T14:58:09.002Z,25.76
2022-08-17T15:08:12.275Z,25.53
2022-08-17T15:18:16.917Z,25.33
2022-08-17T15:28:22.675Z,25.12
2022-08-17T15:38:27.437Z,24.55
2022-08-17T15:48:41.838Z,20.85
2022-08-17T15:58:48.222Z,20.26
2022-08-17T16:08:51.570Z,20.43
2022-08-17T16:18:58.280Z,20.29
2022-08-17T16:29:03.692Z,20.01
2022-08-17T16:39:08.098Z,20.13
2022-08-17T16:49:13.523Z,20.22
2022-08-17T16:59:41.082Z,20.47
2022-08-17T17:09:48.815Z,20.44
2022-08-17T17:20:00.540Z,20.49
2022-08-17T17:30:11.600Z,20.48
2022-08-17T17:40:20.367Z,20.51
2022-08-17T17:50:29.960Z,20.61
2022-08-17T18:00:40.381Z,20.53
2022-08-17T18:10:51.189Z,20.56
2022-08-17T18:21:04.836Z,20.46
2022-08-17T18:31:13.825Z,20.25
2022-08-17T18:41:26.156Z,20.16
2022-08-17T18:51:40.816Z,20.06
2022-08-17T19:02:10.027Z,19.89
2022-08-17T19:12:27.666Z,19.82
2022-08-17T19:22:40.380Z,19.95
2022-08-17T19:32:43.232Z,20.03
2022-08-17T19:42:57.058Z,19.92
2022-08-17T19:53:09.433Z,19.89
2022-08-17T20:03:18.529Z,19.95
2022-08-17T20:13:32.845Z,19.83
2022-08-17T20:23:49.686Z,19.76
2022-08-17T20:33:52.433Z,19.72
2022-08-17T20:44:31.812Z,19.67
2022-08-17T20:54:46.502Z,19.62
2022-08-17T21:05:04.033Z,19.65
2022-08-17T21:15:30.573Z,19.67
2022-08-17T21:26:17.272Z,19.68
2022-08-17T21:36:27.496Z,19.69
2022-08-17T21:46:36.798Z,19.73
2022-08-17T21:56:40.825Z,19.70
2022-08-17T22:06:52.276Z,19.76
2022-08-17T22:17:14.561Z,19.69
2022-08-17T22:27:19.369Z,19.68
2022-08-17T22:37:28.741Z,19.83
2022-08-17T22:47:38.704Z,19.83
2022-08-17T22:58:03.502Z,19.83
2022-08-17T23:08:07.776Z,20.00
2022-08-17T23:18:10.537Z,20.00
2022-08-17T23:28:14.622Z,19.95
2022-08-17T23:38:17.329Z,20.01
2022-08-17T23:48:35.044Z,19.99
2022-08-17T23:58:42.000Z,19.90
